Time;durP1;ratioP1;P1;durP2;ratioP2;P2;SDS_P1;SDS_P2;PMS_P1;PMS_P2;Temp;Humidity;BMP_temperature;BMP_pressure;BME280_temperature;BME280_humidity;BME280_pressure;Samples;Min_cycle;Max_cycle;Signal;HPM_P1;HPM_P2
2021/01/17 00:01:20;;;;;;;11.60;8.23;;;-0.30;99.90;;;;;;5033095;28;20422;-45
2021/01/17 00:03:46;;;;;;;11.00;8.13;;;-0.20;99.90;;;;;;5032345;28;20200;-46
2021/01/17 00:06:11;;;;;;;11.47;8.90;;;-0.30;99.90;;;;;;5035142;28;20188;-45
2021/01/17 00:08:37;;;;;;;10.53;7.97;;;-0.30;99.90;;;;;;5032810;28;20219;-48
2021/01/17 00:11:02;;;;;;;10.87;7.77;;;-0.20;99.90;;;;;;5032039;28;20515;-44
2021/01/17 00:13:28;;;;;;;11.10;7.83;;;-0.20;99.90;;;;;;5032967;28;20647;-47
2021/01/17 00:15:53;;;;;;;12.83;8.97;;;-0.20;99.90;;;;;;5035335;28;20714;-46
2021/01/17 00:18:19;;;;;;;12.07;8.70;;;-0.20;99.90;;;;;;5033317;28;20756;-45
2021/01/17 00:20:44;;;;;;;11.00;8.53;;;-0.20;99.90;;;;;;5029144;28;20202;-45
2021/01/17 00:23:10;;;;;;;10.57;8.03;;;-0.40;99.90;;;;;;5034628;28;20177;-47
2021/01/17 00:25:35;;;;;;;11.73;8.40;;;-0.40;99.90;;;;;;5030226;28;20573;-46
2021/01/17 00:28:02;;;;;;;12.20;8.87;;;-0.40;99.90;;;;;;5034098;28;20219;-47
2021/01/17 00:30:30;;;;;;;11.47;8.70;;;-0.70;99.90;;;;;;5028915;28;20272;-45
2021/01/17 00:32:57;;;;;;;12.17;8.93;;;-0.90;99.90;;;;;;5034285;28;20442;-45
2021/01/17 00:35:24;;;;;;;11.77;8.73;;;-1.00;99.90;;;;;;5032247;28;20431;-51
2021/01/17 00:37:51;;;;;;;11.47;8.23;;;-1.10;99.90;;;;;;5034442;28;20402;-46
2021/01/17 00:40:17;;;;;;;11.53;8.57;;;-1.10;99.90;;;;;;5032337;28;20775;-44
2021/01/17 00:42:46;;;;;;;11.00;8.40;;;-1.00;99.90;;;;;;5033823;28;20411;-45
2021/01/17 00:45:13;;;;;;;12.20;8.83;;;-1.00;99.90;;;;;;5033376;28;20434;-46
2021/01/17 00:47:43;;;;;;;11.03;8.13;;;-1.00;99.90;;;;;;5033711;28;20454;-47
2021/01/17 00:50:09;;;;;;;10.60;8.17;;;-1.10;99.90;;;;;;5033331;28;20500;-44
2021/01/17 00:52:34;;;;;;;11.90;8.83;;;-1.00;99.90;;;;;;5032365;28;20438;-50
2021/01/17 00:55:00;;;;;;;10.93;8.23;;;-1.00;99.90;;;;;;5033680;28;20433;-46
2021/01/17 00:57:26;;;;;;;11.73;7.97;;;-1.00;99.90;;;;;;5036596;28;20178;-46
2021/01/17 00:59:52;;;;;;;11.50;8.63;;;-0.90;99.90;;;;;;5032418;28;20199;-50
2021/01/17 01:02:18;;;;;;;11.23;8.57;;;-0.70;99.90;;;;;;5031136;28;20426;-45
2021/01/17 01:04:43;;;;;;;10.90;8.23;;;-0.60;99.90;;;;;;5033828;28;20187;-45
2021/01/17 01:07:09;;;;;;;11.93;8.80;;;-0.50;99.90;;;;;;5036705;28;20203;-43
2021/01/17 01:09:34;;;;;;;11.97;8.90;;;-0.50;99.90;;;;;;5031484;28;20278;-44
2021/01/17 01:12:00;;;;;;;11.60;8.73;;;-0.50;99.90;;;;;;5034390;28;20188;-45
2021/01/17 01:14:26;;;;;;;11.97;8.73;;;-0.50;99.90;;;;;;5033376;28;20187;-43
2021/01/17 01:16:53;;;;;;;11.00;8.30;;;-0.50;99.90;;;;;;5035992;28;20160;-44
2021/01/17 01:19:19;;;;;;;12.63;9.13;;;-0.40;99.90;;;;;;5033731;28;20608;-46
2021/01/17 01:21:44;;;;;;;12.80;8.80;;;-0.40;99.90;;;;;;5035681;28;20829;-45
2021/01/17 01:24:11;;;;;;;12.30;9.13;;;-0.30;99.90;;;;;;5036399;28;20462;-43
2021/01/17 01:26:41;;;;;;;12.93;9.20;;;-0.20;99.90;;;;;;5038228;28;20168;-46
2021/01/17 01:29:08;;;;;;;12.50;8.90;;;-0.10;99.90;;;;;;5038950;28;20504;-45
2021/01/17 01:31:35;;;;;;;11.43;8.57;;;-0.10;99.90;;;;;;5037208;28;20406;-48
2021/01/17 01:34:00;;;;;;;13.27;9.27;;;-0.10;99.90;;;;;;5037961;28;20417;-45
2021/01/17 01:36:28;;;;;;;13.13;8.87;;;-0.10;99.90;;;;;;5037445;28;20426;-45
2021/01/17 01:38:55;;;;;;;13.33;8.87;;;-0.20;99.90;;;;;;5036849;28;20667;-48
2021/01/17 01:41:25;;;;;;;11.80;8.90;;;-0.20;99.90;;;;;;5019852;28;20430;-43
2021/01/17 01:43:50;;;;;;;13.17;8.80;;;-0.10;99.90;;;;;;5036644;28;20421;-45
2021/01/17 01:46:19;;;;;;;13.77;8.83;;;-0.10;99.90;;;;;;5037989;28;20406;-45
2021/01/17 01:48:46;;;;;;;10.00;7.43;;;-0.10;99.90;;;;;;5036676;28;20215;-46
2021/01/17 01:51:14;;;;;;;10.87;8.37;;;-0.20;99.90;;;;;;5036747;28;20442;-47
2021/01/17 01:53:40;;;;;;;12.30;8.93;;;-0.10;99.90;;;;;;5037300;28;20441;-42
2021/01/17 01:56:07;;;;;;;11.47;8.47;;;-0.10;99.90;;;;;;5037611;28;20456;-49
2021/01/17 01:58:33;;;;;;;11.80;9.20;;;-0.10;99.90;;;;;;5038516;28;20437;-44
2021/01/17 02:00:59;;;;;;;14.30;10.10;;;-0.20;99.90;;;;;;5036770;28;20838;-45
2021/01/17 02:03:24;;;;;;;11.63;8.83;;;-0.30;99.90;;;;;;5037289;28;20934;-49
2021/01/17 02:05:50;;;;;;;13.10;9.83;;;-0.30;99.90;;;;;;5036768;28;20322;-53
2021/01/17 02:08:42;;;;;;;13.57;10.13;;;-0.40;99.90;;;;;;5035716;28;20294;-50
2021/01/17 02:11:20;;;;;;;12.83;9.57;;;-0.50;99.90;;;;;;5036796;28;20216;-46
2021/01/17 02:13:54;;;;;;;15.17;10.83;;;-0.60;99.90;;;;;;5037816;28;20766;-46
2021/01/17 02:16:21;;;;;;;13.00;9.43;;;-0.80;99.90;;;;;;5037831;28;20460;-46
2021/01/17 02:18:50;;;;;;;14.00;9.53;;;-0.80;99.90;;;;;;5037198;28;20442;-47
2021/01/17 02:21:16;;;;;;;11.60;8.60;;;-0.80;99.90;;;;;;5037493;28;20411;-44
2021/01/17 02:23:49;;;;;;;12.60;8.90;;;-0.90;99.90;;;;;;5035597;28;20434;-43
2021/01/17 02:26:15;;;;;;;12.77;9.27;;;-0.80;99.90;;;;;;5036191;28;20249;-43
2021/01/17 02:28:42;;;;;;;13.37;9.57;;;-0.80;99.90;;;;;;5035543;28;20508;-45
2021/01/17 02:31:08;;;;;;;13.70;9.60;;;-0.70;99.90;;;;;;5036087;28;20411;-43
2021/01/17 02:33:38;;;;;;;12.53;8.97;;;-0.60;99.90;;;;;;5036517;28;20438;-44
2021/01/17 02:36:17;;;;;;;13.60;9.33;;;-0.50;99.90;;;;;;5038258;28;20424;-46
2021/01/17 02:39:15;;;;;;;14.23;9.70;;;-0.40;99.90;;;;;;5036388;28;20476;-46
2021/01/17 02:41:59;;;;;;;13.10;9.53;;;-0.30;99.90;;;;;;5036203;28;20415;-44
2021/01/17 02:44:31;;;;;;;13.20;9.40;;;-0.30;99.90;;;;;;5036885;28;20425;-45
2021/01/17 02:46:57;;;;;;;13.67;9.37;;;-0.30;99.90;;;;;;5035273;28;20918;-49
2021/01/17 02:49:23;;;;;;;12.77;9.60;;;-0.20;99.90;;;;;;5035962;28;20458;-45
2021/01/17 02:51:49;;;;;;;13.47;9.40;;;-0.20;99.90;;;;;;5032984;28;20635;-44
2021/01/17 02:54:22;;;;;;;12.40;9.23;;;-0.20;99.90;;;;;;5035349;28;20882;-47
2021/01/17 02:56:56;;;;;;;13.23;9.07;;;-0.20;99.90;;;;;;5034659;28;20958;-43
2021/01/17 02:59:27;;;;;;;12.73;9.33;;;-0.20;99.90;;;;;;5034719;28;20501;-47
2021/01/17 03:01:57;;;;;;;11.53;8.83;;;-0.10;99.90;;;;;;5036104;28;20509;-43
2021/01/17 03:04:42;;;;;;;14.90;10.47;;;-0.10;99.90;;;;;;5035277;28;20539;-47
2021/01/17 03:07:11;;;;;;;12.33;9.70;;;-0.30;99.90;;;;;;5036001;28;20460;-46
2021/01/17 03:09:37;;;;;;;13.10;9.93;;;-0.60;99.90;;;;;;5035995;28;20430;-46
2021/01/17 03:12:04;;;;;;;13.63;9.10;;;-0.70;99.90;;;;;;5035649;28;20414;-46
2021/01/17 03:14:36;;;;;;;13.97;10.20;;;-0.60;99.90;;;;;;5036596;28;20426;-46
2021/01/17 03:17:06;;;;;;;13.00;8.90;;;-0.50;99.90;;;;;;5032326;28;20422;-45
2021/01/17 03:19:33;;;;;;;14.07;9.47;;;-0.60;99.90;;;;;;5035318;28;20442;-44
2021/01/17 03:21:58;;;;;;;12.73;9.47;;;-0.60;99.90;;;;;;5033504;28;20426;-45
2021/01/17 03:24:24;;;;;;;12.23;9.17;;;-0.50;99.90;;;;;;5031803;28;20438;-45
2021/01/17 03:26:50;;;;;;;14.53;9.53;;;-0.40;99.90;;;;;;5033943;28;20333;-45
2021/01/17 03:29:15;;;;;;;13.47;9.50;;;-0.40;99.90;;;;;;5035063;28;20934;-46
2021/01/17 03:31:41;;;;;;;13.27;9.43;;;-0.30;99.90;;;;;;5034814;28;20184;-48
2021/01/17 03:34:06;;;;;;;12.90;9.63;;;-0.30;99.90;;;;;;5035380;28;20183;-47
2021/01/17 03:36:32;;;;;;;13.03;9.53;;;-0.30;99.90;;;;;;5034959;28;20179;-42
2021/01/17 03:38:58;;;;;;;13.37;9.20;;;-0.30;99.90;;;;;;5034228;28;20609;-50
2021/01/17 03:41:24;;;;;;;14.17;9.63;;;-0.30;99.90;;;;;;5034486;28;20180;-46
2021/01/17 03:43:49;;;;;;;13.30;9.30;;;-0.50;99.90;;;;;;5035037;28;20182;-45
2021/01/17 03:46:15;;;;;;;13.93;10.07;;;-0.60;99.90;;;;;;5033953;28;20445;-46
2021/01/17 03:48:40;;;;;;;12.80;8.93;;;-0.50;99.90;;;;;;5033444;28;20315;-47
2021/01/17 03:51:06;;;;;;;14.17;10.37;;;-0.50;99.90;;;;;;5033830;28;20219;-43
2021/01/17 03:53:31;;;;;;;13.57;9.93;;;-0.60;99.90;;;;;;5035684;28;20275;-45
2021/01/17 03:55:57;;;;;;;12.80;9.70;;;-0.70;99.90;;;;;;5034360;28;20183;-43
2021/01/17 03:58:22;;;;;;;13.07;9.07;;;-0.80;99.90;;;;;;5034198;28;20195;-45
2021/01/17 04:00:48;;;;;;;13.47;9.70;;;-0.90;99.90;;;;;;5035262;28;20172;-47
2021/01/17 04:03:14;;;;;;;13.60;9.90;;;-1.00;99.90;;;;;;5034393;28;20218;-47
2021/01/17 04:05:39;;;;;;;14.77;9.83;;;-1.20;99.90;;;;;;5034611;28;20192;-48
2021/01/17 04:08:05;;;;;;;13.53;9.67;;;-1.30;99.90;;;;;;5034717;28;20207;-46
2021/01/17 04:10:30;;;;;;;13.80;9.33;;;-1.30;99.90;;;;;;5034459;28;20187;-50
2021/01/17 04:12:56;;;;;;;15.00;9.70;;;-1.40;99.90;;;;;;5035112;28;20176;-44
2021/01/17 04:15:22;;;;;;;13.40;9.27;;;-1.30;99.90;;;;;;5034704;28;20229;-47
2021/01/17 04:17:47;;;;;;;12.03;9.40;;;-1.40;99.90;;;;;;5034697;28;20186;-45
2021/01/17 04:20:13;;;;;;;12.93;9.27;;;-1.40;99.90;;;;;;5035330;28;20238;-49
2021/01/17 04:22:39;;;;;;;12.53;8.97;;;-1.40;99.90;;;;;;5033875;28;20187;-45
2021/01/17 04:25:06;;;;;;;12.90;9.23;;;-1.30;99.90;;;;;;5034792;28;20431;-46
2021/01/17 04:27:31;;;;;;;12.97;9.57;;;-1.30;99.90;;;;;;5034823;28;20329;-45
2021/01/17 04:29:57;;;;;;;13.43;9.43;;;-1.10;99.90;;;;;;5033133;28;20430;-43
2021/01/17 04:32:23;;;;;;;13.07;9.27;;;-1.00;99.90;;;;;;5034044;28;20237;-47
2021/01/17 04:34:49;;;;;;;12.60;9.37;;;-0.90;99.90;;;;;;5034208;28;20624;-46
2021/01/17 04:37:22;;;;;;;12.37;9.27;;;-0.80;99.90;;;;;;5034183;28;20834;-43
2021/01/17 04:39:48;;;;;;;12.93;9.83;;;-0.80;99.90;;;;;;5033953;28;20656;-47
2021/01/17 04:42:19;;;;;;;14.57;9.97;;;-0.70;99.90;;;;;;5033803;28;20419;-43
2021/01/17 04:44:53;;;;;;;14.37;9.87;;;-0.80;99.90;;;;;;5035209;28;20425;-43
2021/01/17 04:47:20;;;;;;;13.13;9.77;;;-0.70;99.90;;;;;;5034114;28;20462;-45
2021/01/17 04:49:48;;;;;;;13.67;9.60;;;-0.70;99.90;;;;;;5033760;28;20469;-46
2021/01/17 04:52:16;;;;;;;13.67;9.43;;;-0.60;99.90;;;;;;5038887;28;20422;-43
2021/01/17 04:54:41;;;;;;;13.30;9.80;;;-0.70;99.90;;;;;;5037713;28;20418;-45
2021/01/17 04:57:28;;;;;;;14.00;10.20;;;-0.70;99.90;;;;;;5034618;28;20504;-44
2021/01/17 05:00:11;;;;;;;15.50;10.67;;;-0.70;99.90;;;;;;5018819;28;20230;-44
2021/01/17 05:02:43;;;;;;;13.63;9.50;;;-0.70;99.90;;;;;;5035808;28;20445;-47
2021/01/17 05:05:23;;;;;;;13.90;9.33;;;-0.70;99.90;;;;;;5038666;28;20420;-48
2021/01/17 05:07:51;;;;;;;12.67;8.97;;;-0.70;99.90;;;;;;5037930;28;20530;-47
2021/01/17 05:10:35;;;;;;;13.30;10.00;;;-0.70;99.90;;;;;;5036046;28;20439;-49
2021/01/17 05:13:12;;;;;;;13.93;10.03;;;-0.70;99.90;;;;;;5037448;28;20567;-46
2021/01/17 05:15:40;;;;;;;13.93;9.87;;;-0.60;99.90;;;;;;5037341;28;20424;-43
2021/01/17 05:18:06;;;;;;;12.57;9.27;;;-0.60;99.90;;;;;;5037765;28;20438;-44
2021/01/17 05:20:32;;;;;;;13.43;9.93;;;-0.70;99.90;;;;;;5028164;28;20534;-46
2021/01/17 05:22:58;;;;;;;14.80;10.10;;;-0.80;99.90;;;;;;5036835;28;20457;-50
2021/01/17 05:25:28;;;;;;;14.37;10.10;;;-0.90;99.90;;;;;;5037571;28;20510;-44
2021/01/17 05:27:58;;;;;;;14.07;10.10;;;-0.80;99.90;;;;;;5037440;28;20469;-45
2021/01/17 05:30:23;;;;;;;13.40;9.70;;;-0.90;99.90;;;;;;5036881;28;20517;-51
2021/01/17 05:32:50;;;;;;;12.90;9.60;;;-1.00;99.90;;;;;;5040007;28;20819;-46
2021/01/17 05:35:20;;;;;;;13.47;9.07;;;-1.20;99.90;;;;;;5038304;28;20172;-44
2021/01/17 05:37:53;;;;;;;13.37;9.80;;;-1.30;99.90;;;;;;5036398;28;20770;-45
2021/01/17 05:40:20;;;;;;;14.17;10.10;;;-1.40;99.90;;;;;;5038253;28;20415;-46
2021/01/17 05:42:47;;;;;;;12.37;8.97;;;-1.50;99.90;;;;;;5037294;28;20890;-45
2021/01/17 05:45:19;;;;;;;13.20;9.77;;;-1.50;99.90;;;;;;5038054;28;20422;-43
2021/01/17 05:47:55;;;;;;;14.57;9.47;;;-1.50;99.90;;;;;;5036711;28;20450;-47
2021/01/17 05:50:21;;;;;;;15.33;10.20;;;-1.50;99.90;;;;;;5038691;28;20429;-45
2021/01/17 05:52:55;;;;;;;13.13;9.73;;;-1.50;99.90;;;;;;5038294;28;20778;-43
2021/01/17 05:55:32;;;;;;;12.20;9.20;;;-1.40;99.90;;;;;;5037434;28;20402;-46
2021/01/17 05:58:19;;;;;;;12.87;9.40;;;-1.50;99.90;;;;;;5036698;28;20413;-45
2021/01/17 06:00:44;;;;;;;14.30;9.83;;;-1.50;99.90;;;;;;5023802;28;20418;-43
2021/01/17 06:03:10;;;;;;;13.50;9.57;;;-1.60;99.90;;;;;;5035871;28;20933;-45
2021/01/17 06:05:37;;;;;;;14.17;10.10;;;-1.60;99.90;;;;;;5036520;28;20176;-43
2021/01/17 06:08:04;;;;;;;17.13;10.33;;;-1.60;99.90;;;;;;5036501;28;20602;-44
2021/01/17 06:10:31;;;;;;;13.90;10.17;;;-1.60;99.90;;;;;;5036405;28;20418;-45
2021/01/17 06:12:58;;;;;;;14.87;10.17;;;-1.70;99.90;;;;;;5037726;28;20922;-46
2021/01/17 06:15:31;;;;;;;13.93;9.80;;;-1.70;99.90;;;;;;5037593;28;20415;-43
2021/01/17 06:17:58;;;;;;;13.80;9.83;;;-1.80;99.90;;;;;;5036273;28;20813;-49
2021/01/17 06:20:27;;;;;;;15.73;11.23;;;-1.80;99.90;;;;;;5037454;28;20795;-49
2021/01/17 06:22:57;;;;;;;14.23;10.23;;;-1.80;99.90;;;;;;5036485;28;20410;-43
2021/01/17 06:25:30;;;;;;;16.73;10.60;;;-2.00;99.90;;;;;;5037506;28;20422;-45
2021/01/17 06:28:07;;;;;;;17.37;12.10;;;-2.20;99.90;;;;;;5034919;28;20974;-43
2021/01/17 06:30:32;;;;;;;17.30;11.23;;;-2.50;99.90;;;;;;5039813;28;20422;-46
2021/01/17 06:32:58;;;;;;;15.67;10.63;;;-2.70;99.90;;;;;;5035498;28;20497;-43
2021/01/17 06:35:35;;;;;;;14.40;10.40;;;-2.70;99.90;;;;;;5036347;28;20175;-45
2021/01/17 06:38:20;;;;;;;16.03;10.27;;;-2.60;99.90;;;;;;5036510;28;20671;-50
2021/01/17 06:40:48;;;;;;;13.53;9.73;;;-2.50;99.90;;;;;;5035946;28;20462;-45
2021/01/17 06:43:15;;;;;;;14.17;10.17;;;-2.40;99.90;;;;;;5036744;28;20805;-47
2021/01/17 06:45:42;;;;;;;15.67;11.10;;;-2.30;99.90;;;;;;5030668;28;20423;-43
2021/01/17 06:48:08;;;;;;;16.33;10.43;;;-2.30;99.90;;;;;;5032728;28;20543;-45
2021/01/17 06:50:34;;;;;;;19.23;13.17;;;-2.30;99.90;;;;;;5036122;28;20805;-46
2021/01/17 06:53:00;;;;;;;14.63;10.40;;;-2.20;99.90;;;;;;5034027;28;20271;-47
2021/01/17 06:55:26;;;;;;;15.50;11.03;;;-2.30;99.90;;;;;;5034995;28;20506;-45
2021/01/17 06:57:52;;;;;;;18.03;12.07;;;-2.20;99.90;;;;;;5032401;28;20262;-45
2021/01/17 07:00:19;;;;;;;14.80;10.87;;;-2.20;99.90;;;;;;5025274;28;20759;-48
2021/01/17 07:02:54;;;;;;;15.13;10.90;;;-2.20;99.90;;;;;;5032784;28;20442;-46
2021/01/17 07:05:36;;;;;;;15.50;10.40;;;-2.20;99.90;;;;;;5033668;28;20426;-47
2021/01/17 07:08:35;;;;;;;16.30;11.23;;;-2.20;99.90;;;;;;5029988;28;20494;-44
2021/01/17 07:11:21;;;;;;;17.37;11.87;;;-2.20;99.90;;;;;;5033633;28;20961;-45
2021/01/17 07:13:49;;;;;;;18.10;12.33;;;-2.10;99.90;;;;;;5017132;28;20827;-46
2021/01/17 07:16:31;;;;;;;15.53;10.87;;;-2.20;99.90;;;;;;5033321;28;20427;-48
2021/01/17 07:19:03;;;;;;;16.67;11.67;;;-2.20;99.90;;;;;;5012594;28;21001;-46
2021/01/17 07:21:36;;;;;;;19.60;13.30;;;-2.30;99.90;;;;;;5033669;28;20496;-47
2021/01/17 07:24:07;;;;;;;20.43;13.90;;;-2.30;99.90;;;;;;5033065;28;20422;-46
2021/01/17 07:26:48;;;;;;;20.07;12.70;;;-2.10;99.90;;;;;;5031442;28;20434;-49
2021/01/17 07:29:17;;;;;;;20.50;13.93;;;-1.90;99.90;;;;;;5027450;28;20477;-43
2021/01/17 07:31:46;;;;;;;22.43;15.23;;;-1.80;99.90;;;;;;5024762;28;20771;-47
2021/01/17 07:34:12;;;;;;;17.10;11.47;;;-1.70;99.90;;;;;;5035181;28;20497;-47
2021/01/17 07:36:46;;;;;;;18.90;13.43;;;-1.70;99.90;;;;;;5033783;28;20428;-48
2021/01/17 07:39:12;;;;;;;28.73;20.40;;;-1.50;99.90;;;;;;5015514;28;20487;-46
2021/01/17 07:41:44;;;;;;;25.23;18.17;;;-1.40;99.90;;;;;;5014643;28;20435;-47
2021/01/17 07:44:18;;;;;;;19.37;14.37;;;-1.20;99.90;;;;;;5015330;28;20525;-50
2021/01/17 07:46:44;;;;;;;18.53;13.63;;;-1.10;99.90;;;;;;5016243;28;20461;-45
2021/01/17 07:49:12;;;;;;;20.20;13.90;;;-1.00;99.90;;;;;;5035494;28;20477;-48
2021/01/17 07:51:37;;;;;;;19.53;14.13;;;-0.50;99.90;;;;;;5034681;28;20402;-47
2021/01/17 07:54:28;;;;;;;18.43;13.33;;;0.20;99.90;;;;;;5030919;28;20449;-48
2021/01/17 07:56:54;;;;;;;18.53;13.70;;;1.40;99.90;;;;;;5032298;28;20188;-44
2021/01/17 07:59:24;;;;;;;15.57;12.33;;;2.60;99.90;;;;;;5028957;28;20462;-45
2021/01/17 08:01:51;;;;;;;15.27;11.87;;;3.70;99.90;;;;;;5031804;28;20538;-45
2021/01/17 08:04:17;;;;;;;30.00;26.67;;;4.80;99.90;;;;;;5030327;28;20231;-41
2021/01/17 08:06:45;;;;;;;18.73;16.30;;;5.90;98.20;;;;;;5031202;28;20184;-46
2021/01/17 08:09:11;;;;;;;12.73;10.63;;;6.80;96.00;;;;;;5029740;28;20310;-45
2021/01/17 08:11:42;;;;;;;10.90;9.70;;;7.70;93.40;;;;;;5027913;28;20187;-44
2021/01/17 08:14:29;;;;;;;12.33;10.23;;;8.60;91.90;;;;;;5024147;28;20187;-48
2021/01/17 08:17:15;;;;;;;12.17;10.30;;;8.90;90.30;;;;;;5025532;28;20641;-50
2021/01/17 08:19:55;;;;;;;12.53;10.90;;;9.90;87.70;;;;;;5028397;28;20338;-44
2021/01/17 08:22:23;;;;;;;13.00;10.97;;;10.60;83.40;;;;;;5025798;28;20250;-46
2021/01/17 08:24:56;;;;;;;13.50;11.50;;;11.30;81.30;;;;;;5018558;28;20252;-44
2021/01/17 08:27:36;;;;;;;12.70;10.90;;;12.10;76.50;;;;;;5024191;28;20238;-44
2021/01/17 08:30:02;;;;;;;12.77;11.37;;;13.20;75.30;;;;;;5019205;28;20227;-44
2021/01/17 08:32:48;;;;;;;13.10;11.63;;;13.80;70.40;;;;;;5026896;28;20185;-50
2021/01/17 08:35:13;;;;;;;14.50;12.80;;;14.20;67.50;;;;;;5031349;28;20190;-44
2021/01/17 08:37:39;;;;;;;15.43;13.17;;;13.90;65.80;;;;;;5028050;28;20263;-45
2021/01/17 08:40:06;;;;;;;14.60;13.00;;;13.60;65.40;;;;;;5020845;28;20200;-45
2021/01/17 08:42:34;;;;;;;13.93;12.53;;;13.90;65.80;;;;;;5031724;28;20186;-46
2021/01/17 08:45:01;;;;;;;15.00;13.40;;;14.70;64.90;;;;;;5029786;28;20193;-46
2021/01/17 08:47:27;;;;;;;15.83;14.23;;;15.30;63.00;;;;;;5032986;28;20203;-48
2021/01/17 08:49:53;;;;;;;16.67;14.93;;;15.60;60.00;;;;;;5029233;28;20207;-43
2021/01/17 08:52:26;;;;;;;17.70;14.07;;;14.80;59.50;;;;;;5033165;28;20190;-46
2021/01/17 08:54:52;;;;;;;18.40;15.57;;;14.30;60.30;;;;;;5032041;28;20189;-49
2021/01/17 08:57:37;;;;;;;32.83;29.60;;;13.70;59.90;;;;;;5033500;28;20278;-46
2021/01/17 09:00:16;;;;;;;20.27;18.07;;;12.20;60.70;;;;;;5029386;28;20203;-44
2021/01/17 09:02:41;;;;;;;20.77;18.33;;;10.50;63.10;;;;;;5028712;28;20765;-43
2021/01/17 09:05:18;;;;;;;25.33;20.43;;;9.00;67.40;;;;;;5032629;28;20247;-48
2021/01/17 09:07:44;;;;;;;22.17;17.37;;;7.20;70.90;;;;;;5032447;28;20203;-47
2021/01/17 09:10:14;;;;;;;23.20;18.30;;;5.60;75.10;;;;;;5032345;28;20202;-50
2021/01/17 09:12:40;;;;;;;23.50;18.50;;;4.50;80.30;;;;;;5025007;28;20291;-48
2021/01/17 09:15:14;;;;;;;22.00;16.40;;;3.50;84.70;;;;;;5029846;28;20254;-53
2021/01/17 09:17:43;;;;;;;24.23;17.93;;;3.00;89.30;;;;;;5027647;28;20223;-42
2021/01/17 09:20:18;;;;;;;31.07;22.33;;;2.50;91.20;;;;;;5029937;28;20717;-43
2021/01/17 09:22:45;;;;;;;32.40;23.07;;;1.80;93.60;;;;;;5032073;28;20437;-43
2021/01/17 09:25:16;;;;;;;30.40;20.47;;;1.40;96.20;;;;;;5029381;28;20434;-48
2021/01/17 09:27:41;;;;;;;31.43;23.57;;;1.30;97.50;;;;;;5033510;28;20458;-48
2021/01/17 09:30:08;;;;;;;30.47;21.73;;;1.20;98.30;;;;;;5033655;28;20492;-44
2021/01/17 09:32:34;;;;;;;29.87;22.00;;;0.90;99.40;;;;;;5017369;28;20645;-44
2021/01/17 09:35:06;;;;;;;31.60;22.37;;;0.60;99.90;;;;;;5027185;28;20438;-45
2021/01/17 09:37:34;;;;;;;26.87;19.30;;;0.30;99.90;;;;;;5036758;28;20410;-45
2021/01/17 09:40:00;;;;;;;28.47;20.17;;;0.20;99.90;;;;;;5036478;28;20946;-42
2021/01/17 09:42:26;;;;;;;30.10;20.97;;;0.10;99.90;;;;;;5035628;28;20492;-47
2021/01/17 09:45:04;;;;;;;29.27;20.33;;;-0.10;99.90;;;;;;5034916;28;20793;-45
2021/01/17 09:47:30;;;;;;;29.10;20.60;;;-0.10;99.90;;;;;;5030766;28;20958;-50
2021/01/17 09:50:05;;;;;;;28.53;19.93;;;0.10;99.90;;;;;;5034331;28;20465;-54
2021/01/17 09:52:38;;;;;;;28.73;20.37;;;0.40;99.90;;;;;;5016774;28;20233;-50
2021/01/17 09:55:10;;;;;;;27.03;18.33;;;0.40;99.90;;;;;;5040597;28;20436;-46
2021/01/17 09:57:40;;;;;;;28.47;20.40;;;0.40;99.90;;;;;;5015840;28;20982;-44
2021/01/17 10:00:22;;;;;;;28.17;20.37;;;0.50;99.90;;;;;;5036856;28;20774;-45
2021/01/17 10:02:48;;;;;;;30.43;21.40;;;0.50;99.90;;;;;;5039325;28;20435;-50
2021/01/17 10:05:31;;;;;;;28.60;21.00;;;0.70;99.90;;;;;;5036176;28;20457;-51
2021/01/17 10:08:01;;;;;;;28.47;20.57;;;0.90;99.90;;;;;;5031572;28;20219;-51
2021/01/17 10:10:27;;;;;;;32.03;21.57;;;1.10;99.90;;;;;;5034315;28;20419;-46
2021/01/17 10:12:52;;;;;;;28.77;20.53;;;1.30;99.90;;;;;;5033238;28;20414;-44
2021/01/17 10:15:23;;;;;;;26.90;20.23;;;1.30;99.90;;;;;;5032272;28;20195;-44
2021/01/17 10:17:49;;;;;;;30.53;21.80;;;1.50;99.90;;;;;;5017539;28;20183;-46
2021/01/17 10:20:31;;;;;;;30.13;22.37;;;1.60;99.90;;;;;;5031219;28;20780;-49
2021/01/17 10:23:05;;;;;;;27.87;20.60;;;1.80;99.90;;;;;;5030207;28;20175;-43
2021/01/17 10:25:32;;;;;;;28.67;21.67;;;1.80;99.90;;;;;;5029478;28;20811;-44
2021/01/17 10:28:08;;;;;;;29.20;21.70;;;1.70;99.90;;;;;;5017526;28;20459;-46
2021/01/17 10:30:36;;;;;;;27.10;20.03;;;2.00;99.90;;;;;;5012411;28;20422;-47
2021/01/17 10:33:05;;;;;;;29.27;20.93;;;2.20;99.90;;;;;;5033069;28;20183;-45
2021/01/17 10:35:51;;;;;;;28.10;20.07;;;2.60;99.90;;;;;;5026435;28;20576;-45
2021/01/17 10:38:20;;;;;;;29.30;22.50;;;3.00;99.90;;;;;;5025519;28;20214;-45
2021/01/17 10:40:46;;;;;;;33.83;26.30;;;3.70;99.60;;;;;;5034934;28;20188;-47
2021/01/17 10:43:31;;;;;;;80.83;70.57;;;4.60;98.30;;;;;;5033107;28;20263;-45
2021/01/17 10:46:11;;;;;;;23.83;18.80;;;6.60;95.70;;;;;;5034153;28;20186;-44
2021/01/17 10:49:18;;;;;;;23.47;19.10;;;8.30;92.10;;;;;;5020146;28;20262;-46
2021/01/17 10:51:50;;;;;;;30.47;25.07;;;9.20;90.00;;;;;;5018422;28;20191;-44
2021/01/17 10:54:22;;;;;;;25.53;20.43;;;9.30;85.40;;;;;;5014631;28;20278;-50
2021/01/17 10:56:48;;;;;;;24.03;19.87;;;8.80;83.10;;;;;;5034335;28;20578;-48
2021/01/17 10:59:18;;;;;;;24.93;20.10;;;8.40;84.50;;;;;;5035370;28;20678;-46
2021/01/17 11:01:46;;;;;;;24.77;20.57;;;7.80;85.00;;;;;;5023081;28;20176;-50
2021/01/17 11:04:13;;;;;;;25.93;20.50;;;7.70;86.40;;;;;;5019713;28;20602;-48
2021/01/17 11:06:38;;;;;;;24.57;19.60;;;7.70;86.20;;;;;;5031200;28;20271;-45
2021/01/17 11:09:11;;;;;;;23.60;20.17;;;7.80;86.50;;;;;;5034991;28;20294;-46
2021/01/17 11:11:48;;;;;;;23.17;19.97;;;8.50;87.90;;;;;;5021367;28;20250;-48
2021/01/17 11:14:14;;;;;;;21.13;18.80;;;9.50;86.70;;;;;;5035170;28;20530;-51
2021/01/17 11:16:49;;;;;;;21.07;18.50;;;11.20;82.00;;;;;;5034892;28;20632;-44
2021/01/17 11:19:15;;;;;;;20.50;18.20;;;12.60;77.80;;;;;;5027149;28;20204;-48
2021/01/17 11:21:42;;;;;;;18.90;16.90;;;13.90;74.50;;;;;;5027230;28;20223;-47
2021/01/17 11:24:08;;;;;;;17.97;16.07;;;15.90;69.40;;;;;;5003977;28;20188;-45
2021/01/17 11:26:34;;;;;;;17.90;16.10;;;17.50;64.20;;;;;;5037296;28;20175;-50
2021/01/17 11:29:01;;;;;;;17.60;15.80;;;18.70;59.00;;;;;;5020530;28;20230;-44
2021/01/17 11:31:28;;;;;;;17.20;15.50;;;20.10;56.00;;;;;;5030653;28;20179;-45
2021/01/17 11:33:54;;;;;;;17.90;16.17;;;21.00;52.70;;;;;;5028205;28;20188;-45
2021/01/17 11:36:26;;;;;;;17.63;15.93;;;21.00;50.30;;;;;;5030244;28;20214;-45
2021/01/17 11:38:57;;;;;;;16.13;14.52;;;20.70;49.40;;;;;;5027266;28;20262;-44
2021/01/17 11:41:31;;;;;;;17.52;15.80;;;21.30;49.50;;;;;;5030616;28;20183;-48
2021/01/17 11:44:14;;;;;;;17.35;15.75;;;22.70;47.00;;;;;;5030981;28;20184;-45
2021/01/17 11:46:40;;;;;;;18.27;16.58;;;24.00;43.60;;;;;;5032605;28;20262;-43
2021/01/17 11:49:07;;;;;;;16.55;14.95;;;24.40;42.10;;;;;;5030896;28;20239;-45
2021/01/17 11:51:33;;;;;;;16.38;14.88;;;24.20;41.10;;;;;;5033833;28;20184;-47
2021/01/17 11:54:12;;;;;;;20.35;18.50;;;24.80;41.30;;;;;;5033950;28;20589;-45
2021/01/17 11:56:38;;;;;;;19.17;17.38;;;24.60;38.90;;;;;;5033319;28;20168;-46
2021/01/17 11:59:03;;;;;;;19.08;17.17;;;23.80;40.00;;;;;;5032683;28;20717;-46
2021/01/17 12:01:29;;;;;;;19.83;18.02;;;24.00;40.20;;;;;;5032539;28;20259;-47
2021/01/17 12:04:06;;;;;;;20.77;18.88;;;23.50;39.20;;;;;;5031603;28;20204;-45
2021/01/17 12:06:32;;;;;;;19.25;17.55;;;22.40;40.30;;;;;;5033663;28;20179;-47
2021/01/17 12:09:07;;;;;;;19.77;17.90;;;22.00;40.80;;;;;;5031042;28;20207;-49
2021/01/17 12:11:45;;;;;;;18.65;16.80;;;22.20;40.80;;;;;;5032107;28;20230;-44
2021/01/17 12:14:22;;;;;;;19.15;17.30;;;23.00;40.20;;;;;;5031905;28;20605;-51
2021/01/17 12:16:56;;;;;;;21.48;19.48;;;23.30;39.00;;;;;;5031397;28;20555;-51
2021/01/17 12:19:23;;;;;;;19.83;18.02;;;22.80;38.80;;;;;;5013108;28;20211;-48
2021/01/17 12:21:54;;;;;;;18.98;17.27;;;23.00;38.60;;;;;;5032266;28;20264;-44
2021/01/17 12:24:20;;;;;;;17.77;16.08;;;23.40;38.80;;;;;;5034516;28;20262;-46
2021/01/17 12:26:46;;;;;;;18.83;17.08;;;23.50;38.30;;;;;;5032949;28;20258;-48
2021/01/17 12:29:13;;;;;;;16.80;15.23;;;23.70;38.40;;;;;;5029429;28;20277;-47
2021/01/17 12:31:40;;;;;;;17.83;16.08;;;23.80;37.40;;;;;;5031969;28;20184;-50
2021/01/17 12:34:06;;;;;;;19.60;17.67;;;22.20;37.10;;;;;;5025186;28;20180;-46
2021/01/17 12:36:33;;;;;;;19.52;17.67;;;20.40;38.90;;;;;;5028122;28;20642;-51
2021/01/17 12:38:59;;;;;;;17.97;16.23;;;18.50;39.60;;;;;;5021220;28;20729;-47
2021/01/17 12:41:29;;;;;;;19.53;17.50;;;16.70;40.90;;;;;;5030513;28;20222;-47
2021/01/17 12:43:59;;;;;;;19.30;17.30;;;14.70;42.30;;;;;;5031005;28;20184;-48
2021/01/17 12:46:25;;;;;;;17.80;15.90;;;13.00;44.40;;;;;;5031627;28;20175;-47